createdAt,value
2018-09-18T15:59:44.731Z,11.04
2018-09-18T16:05:39.702Z,11.05
2018-09-18T16:11:34.742Z,7.17
2018-09-18T16:17:29.709Z,7.3
2018-09-18T16:23:24.720Z,5.3
2018-09-18T16:29:19.713Z,6.16
2018-09-18T16:35:14.766Z,5.6
2018-09-18T16:41:09.741Z,6.17
2018-09-18T16:47:04.772Z,4.33
2018-09-18T16:52:59.749Z,3.74
2018-09-18T16:58:54.736Z,3.65
2018-09-18T17:04:49.748Z,6.59
2018-09-18T17:10:44.756Z,5.68
2018-09-18T17:16:39.866Z,5.7
2018-09-18T17:22:34.856Z,7.37
2018-09-18T17:28:29.928Z,3.71
2018-09-18T17:34:24.859Z,5.43
2018-09-18T17:40:19.801Z,4.14
2018-09-18T17:46:14.781Z,5.94
2018-09-18T17:52:09.802Z,5.88
2018-09-18T17:58:04.873Z,5.99
2018-09-18T18:03:59.834Z,9.65
2018-09-18T18:09:54.824Z,4.7
2018-09-18T18:15:49.809Z,7.09
2018-09-18T18:21:44.833Z,51.47
2018-09-18T18:27:39.874Z,136.08
2018-09-18T18:33:34.836Z,55.46
2018-09-18T18:39:29.829Z,100.97
2018-09-18T18:45:24.828Z,94.85
2018-09-18T18:51:19.862Z,95.21
2018-09-18T18:57:14.881Z,113.27
2018-09-18T19:03:09.930Z,85.85
2018-09-18T19:09:04.881Z,45.16
2018-09-18T19:14:59.918Z,9.5
2018-09-18T19:20:54.918Z,41.92
2018-09-18T19:26:49.948Z,29.22
2018-09-18T19:32:44.967Z,38.53
2018-09-18T19:38:39.902Z,34.94
2018-09-18T19:44:34.899Z,30.48
2018-09-18T19:50:29.989Z,25.22
2018-09-18T19:56:24.909Z,21.44
2018-09-18T20:02:20.057Z,19.32
2018-09-18T20:08:14.949Z,21.3
2018-09-18T20:14:09.939Z,16.6
2018-09-18T20:20:04.958Z,13.7
2018-09-18T20:25:59.938Z,7.74
2018-09-18T20:31:54.936Z,13.35
2018-09-18T20:37:49.991Z,10.46
2018-09-18T20:43:45.006Z,10.75
2018-09-18T20:49:39.963Z,11.87
2018-09-18T20:55:35.010Z,7.36
2018-09-18T21:01:30.005Z,6.97
2018-09-18T21:07:24.976Z,7.58
2018-09-18T21:13:20.052Z,6.85
2018-09-18T21:19:15.022Z,7.53
2018-09-18T21:25:09.993Z,8.66
2018-09-18T21:31:05.009Z,8.29
2018-09-18T21:37:00.062Z,6.1
2018-09-18T21:42:55.033Z,5.98
2018-09-18T21:48:50.016Z,6.15
2018-09-18T21:54:45.022Z,5.65
2018-09-18T22:00:40.045Z,6.15
2018-09-18T22:06:35.048Z,9.56
2018-09-18T22:12:30.101Z,7.96
2018-09-18T22:18:25.093Z,6.17
2018-09-18T22:24:20.067Z,7.93
2018-09-18T22:30:15.119Z,5.93
2018-09-18T22:36:10.052Z,8.68
2018-09-18T22:42:05.100Z,7.18
2018-09-18T22:48:00.120Z,7.25
2018-09-18T22:53:55.099Z,10.15
2018-09-18T22:59:50.088Z,5.76
2018-09-18T23:05:45.122Z,6.64
2018-09-18T23:11:40.138Z,6.82
2018-09-18T23:17:35.142Z,3.92
2018-09-18T23:23:30.122Z,8.13
2018-09-18T23:29:25.157Z,10.24
2018-09-18T23:35:20.127Z,5.12
2018-09-18T23:41:15.161Z,7.22
2018-09-18T23:47:10.153Z,8.72
2018-09-18T23:53:05.190Z,8.45
2018-09-18T23:59:00.178Z,7.59
